Kezdőlap
METAR-TAF:

METAR-TAF

Repülőterek :

Békéscsaba, Magyarország

Békéscsabai repülőtér

földrajzi szélesség: 46-41-00N, földrajzi hosszúság: 021-09-45E, magasság: 86 m

Jelenlegi meteorológiai megfigyelések

A jelentés 2 órával és 50 perccel ezelõtt készült, 14:45 UTC
Északi szél 13 kt
Hőmérséklet -3°C
Páratartalom 46%
Légköri nyomás 1020 hPa
Látótávolság 10 km, vagy több
felhőtlen 1500 m magasságban, és nincs gomolyfelhõ

METAR: LHBC 251445Z 01013KT CAVOK M03/M13 Q1020

Idő: 18:35 (17:35 UTC)


TAF: hiányzik

Meteorológiai megfigyelések és előrejelzések több, mint 4000 repülőtéren (METAR és TAF jelentéseket).

A térképen piros és sárga pontok jelzik az elérhető meteorológiai állomásokat.

Mozgassa az egeret a pont fölött, hogy megjelenjen az állomás neve.

Azután kattintson az időjárási megfigyelések és előrejelzések megtekintéséhez.

A térkép megváltoztatása: kattintson a fekete keresztel jelölt zöld gombra ráközelítéshez, a vonallal jelölt zöld gombra távolításhoz, vagy a zöld nyilakra a szomszédos térképek eléréséhez.


METAR-TAF: